createdAt,value
2023-01-11T00:00:44.827Z,8.32
2023-01-11T00:03:11.559Z,8.77
2023-01-11T00:05:39.952Z,7.20
2023-01-11T00:08:06.954Z,8.10
2023-01-11T00:10:33.597Z,7.80
2023-01-11T00:13:03.393Z,9.93
2023-01-11T00:15:30.220Z,7.20
2023-01-11T00:17:56.724Z,8.30
2023-01-11T00:20:23.474Z,6.93
2023-01-11T00:22:49.777Z,7.78
2023-01-11T00:25:16.083Z,7.68
2023-01-11T00:27:42.496Z,8.95
2023-01-11T00:30:09.515Z,9.45
2023-01-11T00:32:38.671Z,7.80
2023-01-11T00:35:05.425Z,7.57
2023-01-11T00:37:31.797Z,8.82
2023-01-11T00:39:58.103Z,5.68
2023-01-11T00:42:24.451Z,6.20
2023-01-11T00:44:50.783Z,8.55
2023-01-11T00:47:17.354Z,7.53
2023-01-11T00:49:44.092Z,9.23
2023-01-11T00:52:10.764Z,6.78
2023-01-11T00:54:38.379Z,7.85
2023-01-11T00:57:05.390Z,7.30
2023-01-11T00:59:31.837Z,8.70
2023-01-11T01:01:58.135Z,7.75
2023-01-11T01:04:24.594Z,6.88
2023-01-11T01:06:51.013Z,8.30
2023-01-11T01:09:17.419Z,9.88
2023-01-11T01:11:43.806Z,7.13
2023-01-11T01:14:14.199Z,8.23
2023-01-11T01:16:40.707Z,8.43
2023-01-11T01:19:07.027Z,8.45
2023-01-11T01:21:33.424Z,6.38
2023-01-11T01:23:59.774Z,8.07
2023-01-11T01:26:26.080Z,8.82
2023-01-11T01:28:52.488Z,9.45
2023-01-11T01:31:18.842Z,7.82
2023-01-11T01:33:45.214Z,8.55
2023-01-11T01:36:11.570Z,8.25
2023-01-11T01:38:37.900Z,6.93
2023-01-11T01:41:04.683Z,6.88
2023-01-11T01:43:48.151Z,9.00
2023-01-11T01:46:15.474Z,7.68
2023-01-11T01:48:45.153Z,8.02
2023-01-11T01:51:16.926Z,5.45
2023-01-11T01:53:47.258Z,7.05
2023-01-11T01:56:24.093Z,7.97
2023-01-11T01:58:56.231Z,5.78
2023-01-11T02:03:50.744Z,5.10
2023-01-11T02:06:18.089Z,5.78
2023-01-11T02:08:49.751Z,5.72
2023-01-11T02:11:17.353Z,4.45
2023-01-11T02:13:43.690Z,4.85
2023-01-11T02:16:10.086Z,4.32
2023-01-11T02:18:37.936Z,4.55
2023-01-11T02:21:21.691Z,3.25
2023-01-11T02:24:30.088Z,3.30
2023-01-11T02:27:11.570Z,3.00
2023-01-11T02:29:51.964Z,1.98
2023-01-11T02:32:45.671Z,2.63
2023-01-11T02:35:36.136Z,3.17
2023-01-11T02:38:13.653Z,4.32
2023-01-11T02:41:05.351Z,3.13
2023-01-11T02:44:00.772Z,2.75
2023-01-11T02:46:46.281Z,1.70
2023-01-11T02:49:24.742Z,2.20
2023-01-11T02:51:57.397Z,2.17
2023-01-11T02:54:24.254Z,3.20
2023-01-11T02:56:55.717Z,1.58
2023-01-11T02:59:28.262Z,2.00
2023-01-11T03:01:54.793Z,2.03
2023-01-11T03:04:23.543Z,1.70
2023-01-11T03:07:13.342Z,2.55
2023-01-11T03:09:59.870Z,1.20
2023-01-11T03:12:42.835Z,2.20
2023-01-11T03:15:47.874Z,1.75
2023-01-11T03:18:30.940Z,1.48
2023-01-11T03:21:31.026Z,2.50
2023-01-11T03:24:14.342Z,1.55
2023-01-11T03:26:56.648Z,2.35
2023-01-11T03:29:29.919Z,2.97
2023-01-11T03:32:22.012Z,2.67
2023-01-11T03:35:09.559Z,4.15
2023-01-11T03:37:42.290Z,3.20
2023-01-11T03:40:14.604Z,5.63
2023-01-11T03:42:46.385Z,4.60
2023-01-11T03:45:13.095Z,3.40
2023-01-11T03:47:39.571Z,3.00
2023-01-11T03:50:10.336Z,3.13
2023-01-11T03:52:40.304Z,3.08
2023-01-11T03:55:09.841Z,3.15
2023-01-11T03:57:42.184Z,2.85
2023-01-11T04:00:09.850Z,3.83
2023-01-11T04:02:40.238Z,3.63
2023-01-11T04:05:09.292Z,4.28
2023-01-11T04:07:35.645Z,3.70
2023-01-11T04:10:02.865Z,4.18
2023-01-11T04:12:29.210Z,4.15
2023-01-11T04:14:55.629Z,5.65
2023-01-11T04:17:22.115Z,4.80
2023-01-11T04:19:48.525Z,7.72
2023-01-11T04:22:14.855Z,6.57
2023-01-11T04:24:41.183Z,6.70
2023-01-11T04:27:07.546Z,7.88
2023-01-11T04:29:34.045Z,6.75
2023-01-11T04:32:00.412Z,7.65
2023-01-11T04:34:26.734Z,6.65
2023-01-11T04:36:53.090Z,6.55
2023-01-11T04:39:19.495Z,7.07
2023-01-11T04:41:45.816Z,7.13
2023-01-11T04:44:12.340Z,6.45
2023-01-11T04:46:38.839Z,7.25
2023-01-11T04:49:05.205Z,6.05
2023-01-11T04:51:31.602Z,9.77
2023-01-11T04:53:57.961Z,7.05
2023-01-11T04:56:24.319Z,6.63
2023-01-11T04:58:50.676Z,7.22
2023-01-11T05:01:19.073Z,7.03
2023-01-11T05:03:46.175Z,7.28
2023-01-11T05:06:14.157Z,5.40
2023-01-11T05:08:44.456Z,5.43
2023-01-11T05:11:10.879Z,6.03
2023-01-11T05:13:37.306Z,5.85
2023-01-11T05:16:03.860Z,6.90
2023-01-11T05:18:30.303Z,7.47
2023-01-11T05:20:56.673Z,8.70
2023-01-11T05:23:23.122Z,7.65
2023-01-11T05:25:49.569Z,8.07
2023-01-11T05:28:16.121Z,8.88
2023-01-11T05:30:42.457Z,9.15
2023-01-11T05:33:08.881Z,10.23
2023-01-11T05:35:35.323Z,9.93
2023-01-11T05:38:01.938Z,11.48
2023-01-11T05:40:28.370Z,11.13
2023-01-11T05:42:54.822Z,11.95
2023-01-11T05:45:21.193Z,10.35
2023-01-11T05:47:47.619Z,11.48
2023-01-11T05:50:14.048Z,10.82
2023-01-11T05:52:40.404Z,11.45
2023-01-11T05:55:07.619Z,12.15
2023-01-11T05:57:34.167Z,11.00
2023-01-11T06:00:00.683Z,15.40
2023-01-11T06:02:27.235Z,12.43
2023-01-11T06:04:55.465Z,13.70
2023-01-11T06:07:22.036Z,15.75
2023-01-11T06:09:48.459Z,13.85
2023-01-11T06:12:14.963Z,14.90
2023-01-11T06:14:41.365Z,12.75
2023-01-11T06:17:07.979Z,12.02
2023-01-11T06:19:34.564Z,15.90
2023-01-11T06:22:01.031Z,11.60
2023-01-11T06:24:27.508Z,13.32
2023-01-11T06:26:54.063Z,13.48
2023-01-11T06:29:20.635Z,13.23
2023-01-11T06:31:47.219Z,13.93
2023-01-11T06:34:13.821Z,14.65
2023-01-11T06:36:40.279Z,16.35
2023-01-11T06:39:06.664Z,15.80
2023-01-11T06:41:33.233Z,14.23
2023-01-11T06:43:59.992Z,18.20
2023-01-11T06:46:28.917Z,13.02
2023-01-11T06:48:55.545Z,16.50
2023-01-11T06:51:22.068Z,12.18
2023-01-11T06:53:48.626Z,13.55
2023-01-11T06:56:17.522Z,14.77
2023-01-11T06:58:46.763Z,15.57
2023-01-11T07:01:13.638Z,15.60
2023-01-11T07:03:40.004Z,13.07
2023-01-11T07:06:06.563Z,15.40
2023-01-11T07:08:32.899Z,13.20
2023-01-11T07:10:59.326Z,17.83
2023-01-11T07:13:25.763Z,16.80
2023-01-11T07:15:52.281Z,18.70
2023-01-11T07:18:19.547Z,20.17
2023-01-11T07:20:46.269Z,16.17
2023-01-11T07:23:12.640Z,16.30
2023-01-11T07:25:39.091Z,16.50
2023-01-11T07:28:07.657Z,15.05
2023-01-11T07:30:51.778Z,18.33
2023-01-11T07:33:22.361Z,14.82
2023-01-11T07:35:49.040Z,16.75
2023-01-11T07:38:15.418Z,14.82
2023-01-11T07:40:42.022Z,16.98
2023-01-11T07:43:11.351Z,13.27
2023-01-11T07:45:47.209Z,14.65
2023-01-11T07:48:14.875Z,15.02
2023-01-11T07:50:44.563Z,16.30
2023-01-11T07:53:12.785Z,11.52
2023-01-11T07:55:40.278Z,20.77
2023-01-11T07:58:07.550Z,16.05
2023-01-11T08:00:34.249Z,14.48
2023-01-11T08:03:01.279Z,15.63
2023-01-11T08:05:28.096Z,12.35
2023-01-11T08:07:54.526Z,15.00
2023-01-11T08:10:20.953Z,9.13
2023-01-11T08:12:51.425Z,10.98
2023-01-11T08:15:18.036Z,12.13
2023-01-11T08:17:44.498Z,10.88
2023-01-11T08:20:10.904Z,13.63
2023-01-11T08:22:37.256Z,12.23
2023-01-11T08:25:03.699Z,12.23
2023-01-11T08:27:30.199Z,10.38
2023-01-11T08:29:56.510Z,11.35
2023-01-11T08:32:22.912Z,10.25
2023-01-11T08:34:49.311Z,12.35
2023-01-11T08:37:15.677Z,11.32
2023-01-11T08:39:42.022Z,8.45
2023-01-11T08:42:08.621Z,12.95
2023-01-11T08:44:35.329Z,10.95
2023-01-11T08:47:02.869Z,13.20
2023-01-11T08:49:29.292Z,13.70
2023-01-11T08:51:55.859Z,14.73
2023-01-11T08:54:22.304Z,10.10
2023-01-11T08:56:48.673Z,10.85
2023-01-11T08:59:15.095Z,14.25
2023-01-11T09:01:41.804Z,10.45
2023-01-11T09:04:23.092Z,13.18
2023-01-11T09:06:51.072Z,10.60
2023-01-11T09:09:17.541Z,12.95
2023-01-11T09:11:44.109Z,14.82
2023-01-11T09:14:10.534Z,11.05
2023-01-11T09:16:37.038Z,10.27
2023-01-11T09:19:03.388Z,12.52
2023-01-11T09:21:29.809Z,14.50
2023-01-11T09:23:56.363Z,11.27
2023-01-11T09:26:22.712Z,14.80
2023-01-11T09:28:49.123Z,8.73
2023-01-11T09:31:15.525Z,13.95
2023-01-11T09:33:42.089Z,6.95
2023-01-11T09:36:08.553Z,9.90
2023-01-11T09:38:34.899Z,13.00
2023-01-11T09:41:31.565Z,13.07
2023-01-11T09:44:15.175Z,18.90
2023-01-11T09:46:46.396Z,13.77
2023-01-11T09:49:19.220Z,12.73
2023-01-11T09:51:47.104Z,12.40
2023-01-11T09:54:27.031Z,9.88
2023-01-11T09:57:19.563Z,13.85
2023-01-11T09:59:54.752Z,11.90
2023-01-11T10:02:56.393Z,20.00
2023-01-11T10:05:41.491Z,17.63
2023-01-11T10:18:32.541Z,13.68
2023-01-11T10:18:34.081Z,13.43
2023-01-11T10:20:20.920Z,11.00
2023-01-11T10:22:48.973Z,10.65
2023-01-11T10:25:19.560Z,11.43
2023-01-11T10:27:59.761Z,15.20
2023-01-11T10:30:33.135Z,14.23
2023-01-11T10:33:12.364Z,11.95
2023-01-11T10:35:45.821Z,11.18
2023-01-11T10:38:48.239Z,9.52
2023-01-11T10:41:23.186Z,11.73
2023-01-11T10:44:01.446Z,17.08
2023-01-11T10:46:30.834Z,12.75
2023-01-11T10:49:25.142Z,12.32
2023-01-11T10:51:54.856Z,15.55
2023-01-11T10:54:29.508Z,13.38
2023-01-11T10:57:28.572Z,10.35
2023-01-11T11:00:15.661Z,18.30
2023-01-11T11:03:07.084Z,17.85
2023-01-11T11:06:04.659Z,13.52
2023-01-11T11:08:53.137Z,12.52
2023-01-11T11:11:29.071Z,16.73
2023-01-11T11:14:17.191Z,14.13
2023-01-11T11:16:55.766Z,12.68
2023-01-11T11:19:26.425Z,11.27
2023-01-11T11:21:52.821Z,13.70
2023-01-11T11:24:27.024Z,11.98
2023-01-11T11:27:06.848Z,15.27
2023-01-11T11:29:41.132Z,10.75
2023-01-11T11:32:19.209Z,14.50
2023-01-11T11:34:48.275Z,11.20
2023-01-11T11:37:28.264Z,14.65
2023-01-11T11:39:55.354Z,12.50
2023-01-11T11:42:22.338Z,14.35
2023-01-11T11:45:05.659Z,15.73
2023-01-11T11:47:32.034Z,11.30
2023-01-11T11:50:42.629Z,15.35
2023-01-11T11:53:07.966Z,13.15
2023-01-11T11:55:35.504Z,16.67
2023-01-11T11:58:07.627Z,14.23
2023-01-11T12:03:18.901Z,17.65
2023-01-11T12:05:58.715Z,9.93
2023-01-11T12:08:25.453Z,11.40
2023-01-11T12:10:59.538Z,21.80
2023-01-11T12:13:29.441Z,10.40
2023-01-11T12:15:58.316Z,13.73
2023-01-11T12:18:39.284Z,13.23
2023-01-11T12:21:23.692Z,15.40
2023-01-11T12:24:16.326Z,12.25
2023-01-11T12:27:16.811Z,16.63
2023-01-11T12:29:53.680Z,17.60
2023-01-11T12:32:51.061Z,13.73
2023-01-11T12:35:33.625Z,15.65
2023-01-11T12:38:27.952Z,14.60
2023-01-11T12:41:11.433Z,11.65
2023-01-11T12:43:46.924Z,11.43
2023-01-11T12:46:20.576Z,12.23
2023-01-11T12:48:58.643Z,10.13
2023-01-11T12:51:40.094Z,15.00
2023-01-11T12:54:28.182Z,12.57
2023-01-11T12:57:16.086Z,13.88
2023-01-11T13:00:05.157Z,11.82
2023-01-11T13:03:08.471Z,15.23
2023-01-11T13:06:09.672Z,20.00
2023-01-11T13:09:09.807Z,15.52
2023-01-11T13:12:07.084Z,11.07
2023-01-11T13:15:01.434Z,13.70
2023-01-11T13:17:49.856Z,13.85
2023-01-11T13:20:59.208Z,13.80
2023-01-11T13:23:41.608Z,11.82
2023-01-11T13:26:31.977Z,15.13
2023-01-11T13:29:16.215Z,12.80
2023-01-11T13:34:28.060Z,11.52
2023-01-11T13:37:02.707Z,13.40
2023-01-11T13:40:01.518Z,13.27
2023-01-11T13:42:35.146Z,11.27
2023-01-11T13:45:14.295Z,8.85
2023-01-11T13:47:55.661Z,13.25
2023-01-11T13:50:28.523Z,10.98
2023-01-11T13:53:15.201Z,11.65
2023-01-11T13:55:54.551Z,10.85
2023-01-11T13:58:25.832Z,10.40
2023-01-11T14:01:02.169Z,11.18
2023-01-11T14:03:40.602Z,12.77
2023-01-11T14:06:13.075Z,13.98
2023-01-11T14:09:04.410Z,15.40
2023-01-11T14:11:52.071Z,11.15
2023-01-11T14:14:49.591Z,9.75
2023-01-11T14:17:27.905Z,14.23
2023-01-11T14:20:14.760Z,11.43
2023-01-11T14:22:46.844Z,9.52
2023-01-11T14:25:19.562Z,13.80
2023-01-11T14:27:51.791Z,12.52
2023-01-11T14:33:38.457Z,13.85
2023-01-11T14:38:59.025Z,7.75
2023-01-11T14:41:59.022Z,13.85
2023-01-11T14:44:57.919Z,12.73
2023-01-11T14:47:54.765Z,14.10
2023-01-11T14:50:33.632Z,11.88
2023-01-11T14:53:03.551Z,11.82
2023-01-11T14:55:37.236Z,12.45
2023-01-11T14:58:09.399Z,13.52
2023-01-11T15:03:05.032Z,12.00
2023-01-11T15:05:31.396Z,17.27
2023-01-11T15:08:13.028Z,21.48
2023-01-11T15:11:01.413Z,10.48
2023-01-11T15:13:36.491Z,15.13
2023-01-11T15:16:16.999Z,20.23
2023-01-11T15:18:45.831Z,11.20
2023-01-11T15:21:18.660Z,14.38
2023-01-11T15:23:57.304Z,13.32
2023-01-11T15:26:26.018Z,21.33
2023-01-11T15:28:56.234Z,13.35
2023-01-11T15:31:34.459Z,12.38
2023-01-11T15:34:04.442Z,9.45
2023-01-11T15:37:01.966Z,16.63
2023-01-11T15:39:44.366Z,13.27
2023-01-11T15:42:16.550Z,11.48
2023-01-11T15:47:44.628Z,14.05
2023-01-11T15:50:26.772Z,11.05
2023-01-11T15:53:17.430Z,24.60
2023-01-11T15:56:02.468Z,9.60
2023-01-11T15:58:56.704Z,12.75
2023-01-11T16:01:24.434Z,13.20
2023-01-11T16:04:12.150Z,13.38
2023-01-11T16:06:40.819Z,12.98
2023-01-11T16:09:35.123Z,12.15
2023-01-11T16:12:36.837Z,10.90
2023-01-11T16:15:22.689Z,12.07
2023-01-11T16:17:50.392Z,12.25
2023-01-11T16:20:19.582Z,12.15
2023-01-11T16:23:02.377Z,12.40
2023-01-11T16:25:31.418Z,14.23
2023-01-11T16:27:59.455Z,18.77
2023-01-11T16:30:27.546Z,8.98
2023-01-11T16:33:32.377Z,14.45
2023-01-11T16:36:21.718Z,11.60
2023-01-11T16:38:53.831Z,11.80
2023-01-11T16:41:21.173Z,10.13
2023-01-11T16:43:52.620Z,13.32
2023-01-11T16:46:43.140Z,13.25
2023-01-11T16:49:10.601Z,13.90
2023-01-11T16:51:36.977Z,9.43
2023-01-11T16:54:04.181Z,10.52
2023-01-11T16:56:30.538Z,13.40
2023-01-11T16:59:15.264Z,12.70
2023-01-11T17:01:51.072Z,9.35
2023-01-11T17:04:28.484Z,10.98
2023-01-11T17:06:55.588Z,12.25
2023-01-11T17:09:24.083Z,13.10
2023-01-11T17:11:51.639Z,11.88
2023-01-11T17:14:55.471Z,9.25
2023-01-11T17:17:23.292Z,9.30
2023-01-11T17:19:50.344Z,12.27
2023-01-11T17:22:29.398Z,12.70
2023-01-11T17:24:59.855Z,10.85
2023-01-11T17:27:29.189Z,14.95
2023-01-11T17:29:57.613Z,16.17
2023-01-11T17:32:42.561Z,10.10
2023-01-11T17:35:16.187Z,14.40
2023-01-11T17:37:47.681Z,11.88
2023-01-11T17:40:31.057Z,9.07
2023-01-11T17:43:04.368Z,10.48
2023-01-11T17:45:30.836Z,9.20
2023-01-11T17:48:10.103Z,8.60
2023-01-11T17:50:49.706Z,10.93
2023-01-11T17:53:21.565Z,13.00
2023-01-11T17:55:52.175Z,10.48
2023-01-11T17:58:22.597Z,13.30
2023-01-11T18:01:04.083Z,11.02
2023-01-11T18:03:34.313Z,11.60
2023-01-11T18:06:11.620Z,11.52
2023-01-11T18:08:38.326Z,12.00
2023-01-11T18:11:05.952Z,11.70
2023-01-11T18:13:34.063Z,7.30
2023-01-11T18:16:03.399Z,12.68
2023-01-11T18:18:40.736Z,12.43
2023-01-11T18:21:25.468Z,8.77
2023-01-11T18:24:10.153Z,10.18
2023-01-11T18:26:39.012Z,9.52
2023-01-11T18:29:05.923Z,11.73
2023-01-11T18:31:32.560Z,9.50
2023-01-11T18:33:59.331Z,10.40
2023-01-11T18:36:25.873Z,10.98
2023-01-11T18:38:52.291Z,5.88
2023-01-11T18:41:18.918Z,7.97
2023-01-11T18:43:45.520Z,12.70
2023-01-11T18:46:11.987Z,7.68
2023-01-11T18:48:38.384Z,11.85
2023-01-11T18:51:04.866Z,7.47
2023-01-11T18:53:31.206Z,9.10
2023-01-11T18:55:57.585Z,11.77
2023-01-11T18:58:23.900Z,8.88
2023-01-11T19:00:50.288Z,12.10
2023-01-11T19:03:16.666Z,10.70
2023-01-11T19:05:43.091Z,9.80
2023-01-11T19:08:09.460Z,10.95
2023-01-11T19:10:35.943Z,12.13
2023-01-11T19:13:02.300Z,10.10
2023-01-11T19:15:28.796Z,10.30
2023-01-11T19:17:55.190Z,11.45
2023-01-11T19:20:22.811Z,12.45
2023-01-11T19:22:49.469Z,14.00
2023-01-11T19:25:16.100Z,9.25
2023-01-11T19:27:43.010Z,12.85
2023-01-11T19:30:10.108Z,11.55
2023-01-11T19:32:36.746Z,13.95
2023-01-11T19:35:03.145Z,15.48
2023-01-11T19:37:29.833Z,11.20
2023-01-11T19:39:56.363Z,9.30
2023-01-11T19:42:22.913Z,12.65
2023-01-11T19:44:49.560Z,9.02
2023-01-11T19:47:16.024Z,15.95
2023-01-11T19:49:43.446Z,12.15
2023-01-11T19:52:13.207Z,11.63
2023-01-11T19:54:44.480Z,8.15
2023-01-11T19:57:15.717Z,7.35
2023-01-11T19:59:42.301Z,13.77
2023-01-11T20:02:11.533Z,12.07
2023-01-11T20:04:38.196Z,7.55
2023-01-11T20:07:05.326Z,9.88
2023-01-11T20:09:31.893Z,9.88
2023-01-11T20:11:58.382Z,11.27
2023-01-11T20:14:25.078Z,6.78
2023-01-11T20:16:51.742Z,10.35
2023-01-11T20:19:18.068Z,10.27
2023-01-11T20:21:44.490Z,9.30
2023-01-11T20:24:14.615Z,9.80
2023-01-11T20:26:42.139Z,9.30
2023-01-11T20:29:08.893Z,8.18
2023-01-11T20:31:35.485Z,7.80
2023-01-11T20:34:04.940Z,13.13
2023-01-11T20:36:31.439Z,7.88
2023-01-11T20:38:57.851Z,11.18
2023-01-11T20:41:28.965Z,11.77
2023-01-11T20:43:55.333Z,10.13
2023-01-11T20:46:21.881Z,9.10
2023-01-11T20:48:48.345Z,5.40
2023-01-11T20:51:14.679Z,6.50
2023-01-11T20:53:41.063Z,7.22
2023-01-11T20:56:07.847Z,10.40
2023-01-11T20:58:34.264Z,8.02
2023-01-11T21:01:05.324Z,10.00
2023-01-11T21:03:31.923Z,9.65
2023-01-11T21:05:58.315Z,13.15
2023-01-11T21:08:24.920Z,10.45
2023-01-11T21:10:51.292Z,7.05
2023-01-11T21:13:17.694Z,6.47
2023-01-11T21:15:44.071Z,9.05
2023-01-11T21:18:10.491Z,9.68
2023-01-11T21:20:36.981Z,11.48
2023-01-11T21:23:03.458Z,15.07
2023-01-11T21:25:33.758Z,12.13
2023-01-11T21:28:00.135Z,11.13
2023-01-11T21:30:26.535Z,9.07
2023-01-11T21:32:52.907Z,10.77
2023-01-11T21:35:19.316Z,10.57
2023-01-11T21:37:45.681Z,12.88
2023-01-11T21:40:12.515Z,9.70
2023-01-11T21:42:38.897Z,12.52
2023-01-11T21:45:05.731Z,12.75
2023-01-11T21:47:32.094Z,13.50
2023-01-11T21:49:58.509Z,9.70
2023-01-11T21:52:24.983Z,10.90
2023-01-11T21:54:51.311Z,14.93
2023-01-11T21:57:17.656Z,12.35
2023-01-11T21:59:44.015Z,9.63
2023-01-11T22:02:11.337Z,9.90
2023-01-11T22:04:37.913Z,12.05
2023-01-11T22:07:04.333Z,15.30
2023-01-11T22:09:30.834Z,12.80
2023-01-11T22:11:57.271Z,10.23
2023-01-11T22:14:24.078Z,10.27
2023-01-11T22:16:50.486Z,10.43
2023-01-11T22:19:17.265Z,9.25
2023-01-11T22:21:43.701Z,11.20
2023-01-11T22:24:11.095Z,15.27
2023-01-11T22:26:38.393Z,11.27
2023-01-11T22:29:06.893Z,10.57
2023-01-11T22:31:33.747Z,6.88
2023-01-11T22:34:00.371Z,12.07
2023-01-11T22:36:28.410Z,10.68
2023-01-11T22:38:55.276Z,13.27
2023-01-11T22:41:22.531Z,14.55
2023-01-11T22:43:49.119Z,13.35
2023-01-11T22:46:18.326Z,10.48
2023-01-11T22:48:45.201Z,10.90
2023-01-11T22:51:12.071Z,9.40
2023-01-11T22:53:40.103Z,9.68
2023-01-11T22:56:08.043Z,14.15
2023-01-11T22:58:34.966Z,12.77
2023-01-11T23:01:10.785Z,10.07
2023-01-11T23:03:37.461Z,9.70
2023-01-11T23:06:04.325Z,14.48
2023-01-11T23:08:30.832Z,15.38
2023-01-11T23:11:00.291Z,8.52
2023-01-11T23:13:26.647Z,8.02
2023-01-11T23:15:53.965Z,9.50
2023-01-11T23:18:20.836Z,9.77
2023-01-11T23:20:47.637Z,9.90
2023-01-11T23:23:14.065Z,9.77
2023-01-11T23:25:40.367Z,10.85
2023-01-11T23:28:06.690Z,10.73
2023-01-11T23:30:33.268Z,10.10
2023-01-11T23:32:59.626Z,12.55
2023-01-11T23:35:26.061Z,9.05
2023-01-11T23:37:54.242Z,12.82
2023-01-11T23:40:20.702Z,12.18
2023-01-11T23:42:47.078Z,11.32
2023-01-11T23:45:13.458Z,13.20
2023-01-11T23:47:39.878Z,10.45
2023-01-11T23:50:06.702Z,12.60
2023-01-11T23:52:33.081Z,10.90
2023-01-11T23:54:59.800Z,10.10
2023-01-11T23:57:26.760Z,13.07
2023-01-11T23:59:53.208Z,9.43
